Time;durP1;ratioP1;P1;durP2;ratioP2;P2;SDS_P1;SDS_P2;PMS_P1;PMS_P2;Temp;Humidity;BMP_temperature;BMP_pressure;BME280_temperature;BME280_humidity;BME280_pressure;Samples;Min_cycle;Max_cycle;Signal;HPM_P1;HPM_P2
2023/05/03 00:00:01;;;;;;;11.50;2.53;;;5.60;99.90;;;;;;5176578;27;20069;-53
2023/05/03 00:02:27;;;;;;;6.18;2.00;;;5.50;99.90;;;;;;5143723;27;20086;-54
2023/05/03 00:04:53;;;;;;;8.32;2.22;;;5.50;99.90;;;;;;5135007;27;20410;-50
2023/05/03 00:07:19;;;;;;;8.20;2.25;;;5.40;99.90;;;;;;5166513;27;20030;-55
2023/05/03 00:09:45;;;;;;;9.57;2.22;;;5.40;99.90;;;;;;5172330;27;20053;-55
2023/05/03 00:12:11;;;;;;;10.07;2.40;;;5.40;99.90;;;;;;5174532;27;20026;-55
2023/05/03 00:14:36;;;;;;;6.47;2.80;;;5.30;99.90;;;;;;5170827;27;20359;-55
2023/05/03 00:17:02;;;;;;;7.13;1.80;;;5.30;99.90;;;;;;5175329;27;20034;-55
2023/05/03 00:19:32;;;;;;;6.03;1.85;;;5.20;99.90;;;;;;5165965;27;20038;-51
2023/05/03 00:21:58;;;;;;;5.60;1.90;;;5.20;99.90;;;;;;5173742;27;20036;-51
2023/05/03 00:24:24;;;;;;;6.22;2.28;;;5.40;99.90;;;;;;5172619;27;20046;-59
2023/05/03 00:26:50;;;;;;;6.60;2.35;;;5.20;99.90;;;;;;5174992;27;20117;-56
2023/05/03 00:29:15;;;;;;;6.97;2.30;;;5.10;99.90;;;;;;5175200;27;20030;-54
2023/05/03 00:31:44;;;;;;;6.35;2.50;;;5.20;99.90;;;;;;5174657;27;20049;-58
2023/05/03 00:34:10;;;;;;;5.35;2.38;;;5.00;99.90;;;;;;5173549;27;20069;-57
2023/05/03 00:36:35;;;;;;;9.40;2.42;;;5.00;99.90;;;;;;5174976;27;20437;-51
2023/05/03 00:39:01;;;;;;;5.55;2.47;;;4.90;99.90;;;;;;5166167;27;20514;-59
2023/05/03 00:41:27;;;;;;;9.52;2.30;;;4.90;99.90;;;;;;5173170;27;20399;-56
2023/05/03 00:43:52;;;;;;;5.85;2.50;;;4.90;99.90;;;;;;5169141;27;20141;-56
2023/05/03 00:46:18;;;;;;;8.38;2.38;;;4.90;99.90;;;;;;5173893;27;20030;-52
2023/05/03 00:48:48;;;;;;;4.57;2.20;;;4.90;99.90;;;;;;5172303;27;20121;-55
2023/05/03 00:51:14;;;;;;;6.72;2.60;;;4.90;99.90;;;;;;5131848;27;20053;-55
2023/05/03 00:53:41;;;;;;;9.32;2.63;;;4.90;99.90;;;;;;5164699;27;20054;-56
2023/05/03 00:56:08;;;;;;;5.28;2.20;;;4.90;99.90;;;;;;5173069;27;20063;-55
2023/05/03 00:58:38;;;;;;;6.22;2.10;;;4.90;99.90;;;;;;5172972;27;20041;-53
2023/05/03 01:01:07;;;;;;;7.40;2.40;;;4.90;99.90;;;;;;5174677;27;20110;-54
2023/05/03 01:03:35;;;;;;;8.52;2.42;;;5.00;99.90;;;;;;5134537;27;20099;-55
2023/05/03 01:06:26;;;;;;;5.05;2.20;;;4.90;99.90;;;;;;5151663;27;20492;-57
2023/05/03 01:09:07;;;;;;;9.32;2.30;;;4.90;99.90;;;;;;5172938;27;20053;-53
2023/05/03 01:11:46;;;;;;;5.95;2.25;;;4.80;99.90;;;;;;5172939;27;20073;-56
2023/05/03 01:14:31;;;;;;;8.70;3.03;;;4.80;99.90;;;;;;5174004;27;20034;-53
2023/05/03 01:17:07;;;;;;;5.82;2.58;;;4.70;99.90;;;;;;5132177;27;20041;-55
2023/05/03 01:19:43;;;;;;;8.15;2.65;;;4.70;99.90;;;;;;5133702;27;20030;-55
2023/05/03 01:22:43;;;;;;;7.53;2.42;;;4.60;99.90;;;;;;5133482;27;20027;-57
2023/05/03 01:25:11;;;;;;;8.13;2.60;;;4.60;99.90;;;;;;5171653;27;20058;-53
2023/05/03 01:27:38;;;;;;;6.82;3.20;;;4.50;99.90;;;;;;5142302;27;20035;-57
2023/05/03 01:30:06;;;;;;;6.80;3.00;;;4.50;99.90;;;;;;5169627;27;20049;-55
2023/05/03 01:33:01;;;;;;;8.13;2.97;;;4.40;99.90;;;;;;5141027;27;20038;-55
2023/05/03 01:35:26;;;;;;;6.85;3.00;;;4.40;99.90;;;;;;5173967;27;20045;-58
2023/05/03 01:37:55;;;;;;;9.70;3.15;;;4.40;99.90;;;;;;5173324;27;20046;-54
2023/05/03 01:40:22;;;;;;;7.82;2.47;;;4.40;99.90;;;;;;5173747;27;20113;-56
2023/05/03 01:42:49;;;;;;;6.28;2.50;;;4.40;99.90;;;;;;5172788;27;20043;-56
2023/05/03 01:45:15;;;;;;;8.23;3.03;;;4.30;99.90;;;;;;5173515;27;20121;-56
2023/05/03 01:47:41;;;;;;;8.52;2.75;;;4.30;99.90;;;;;;5141215;27;20456;-52
2023/05/03 01:50:07;;;;;;;7.82;2.80;;;4.30;99.90;;;;;;5173530;27;20113;-57
2023/05/03 01:52:33;;;;;;;5.25;2.63;;;4.30;99.90;;;;;;5172822;27;20466;-56
2023/05/03 01:54:59;;;;;;;7.65;2.83;;;4.30;99.90;;;;;;5172889;27;20077;-51
2023/05/03 01:57:25;;;;;;;9.80;2.78;;;4.20;99.90;;;;;;5172379;27;20047;-57
2023/05/03 01:59:50;;;;;;;7.93;2.83;;;4.20;99.90;;;;;;5173170;27;20477;-54
2023/05/03 02:02:16;;;;;;;7.60;2.67;;;4.20;99.90;;;;;;5171885;27;20039;-57
2023/05/03 02:04:42;;;;;;;6.95;2.83;;;4.20;99.90;;;;;;5173022;27;20510;-53
2023/05/03 02:07:08;;;;;;;7.85;3.22;;;4.20;99.90;;;;;;5171913;27;20114;-51
2023/05/03 02:09:33;;;;;;;7.32;2.72;;;4.30;99.90;;;;;;5168790;27;20129;-55
2023/05/03 02:11:59;;;;;;;5.35;3.03;;;4.30;99.90;;;;;;5135427;27;20091;-53
2023/05/03 02:14:25;;;;;;;5.88;3.00;;;4.20;99.90;;;;;;5165062;27;21224;-58
2023/05/03 02:16:50;;;;;;;5.90;2.60;;;4.30;99.90;;;;;;5169222;27;20113;-54
2023/05/03 02:19:16;;;;;;;6.93;2.95;;;4.30;99.90;;;;;;5172523;27;20034;-55
2023/05/03 02:21:42;;;;;;;9.70;3.25;;;4.20;99.90;;;;;;5172868;27;20099;-57
2023/05/03 02:24:07;;;;;;;10.23;3.10;;;4.20;99.90;;;;;;5172097;27;20503;-55
2023/05/03 02:26:33;;;;;;;6.82;2.95;;;4.20;99.90;;;;;;5172499;27;20026;-54
2023/05/03 02:28:59;;;;;;;9.57;3.00;;;4.20;99.90;;;;;;5138966;27;20077;-53
2023/05/03 02:31:25;;;;;;;6.43;2.63;;;4.20;99.90;;;;;;5171593;27;20041;-53
2023/05/03 02:33:51;;;;;;;6.35;2.60;;;4.20;99.90;;;;;;5138764;27;20038;-55
2023/05/03 02:36:17;;;;;;;9.32;2.65;;;4.20;99.90;;;;;;5171569;27;20042;-53
2023/05/03 02:38:42;;;;;;;9.82;2.65;;;4.20;99.90;;;;;;5172498;27;20034;-57
2023/05/03 02:41:08;;;;;;;5.50;2.53;;;4.20;99.90;;;;;;5168125;27;20117;-54
2023/05/03 02:43:34;;;;;;;8.23;2.42;;;4.10;99.90;;;;;;5171967;27;20042;-55
2023/05/03 02:45:59;;;;;;;6.47;2.47;;;4.10;99.90;;;;;;5170181;27;20034;-54
2023/05/03 02:48:25;;;;;;;4.97;2.70;;;4.00;99.90;;;;;;5172078;27;20584;-54
2023/05/03 02:50:51;;;;;;;7.47;2.70;;;4.00;99.90;;;;;;5169999;27;20418;-52
2023/05/03 02:53:16;;;;;;;7.40;2.80;;;3.90;99.90;;;;;;5165201;27;20397;-54
2023/05/03 02:55:42;;;;;;;7.22;2.63;;;3.90;99.90;;;;;;5170648;27;20034;-52
2023/05/03 02:58:08;;;;;;;6.68;2.75;;;3.90;99.90;;;;;;5170974;27;20030;-57
2023/05/03 03:00:34;;;;;;;7.65;2.53;;;3.90;99.90;;;;;;5170695;27;20045;-55
2023/05/03 03:03:00;;;;;;;4.65;2.35;;;3.90;99.90;;;;;;5136788;27;20493;-53
2023/05/03 03:05:26;;;;;;;9.13;2.58;;;3.80;99.90;;;;;;5173144;27;20385;-58
2023/05/03 03:07:51;;;;;;;7.85;2.58;;;3.80;99.90;;;;;;5172038;27;20074;-56
2023/05/03 03:10:17;;;;;;;6.18;2.70;;;3.80;99.90;;;;;;5171285;27;20042;-53
2023/05/03 03:12:43;;;;;;;11.70;3.30;;;3.80;99.90;;;;;;5139077;27;20526;-54
2023/05/03 03:15:09;;;;;;;5.65;2.75;;;3.80;99.90;;;;;;5170798;27;20026;-53
2023/05/03 03:17:38;;;;;;;8.15;2.90;;;3.80;99.90;;;;;;5172800;27;20031;-57
2023/05/03 03:20:06;;;;;;;4.82;2.88;;;3.70;99.90;;;;;;5171149;27;20046;-56
2023/05/03 03:22:32;;;;;;;6.90;2.95;;;3.70;99.90;;;;;;5171721;27;20408;-54
2023/05/03 03:24:57;;;;;;;6.53;2.75;;;3.70;99.90;;;;;;5170879;27;20033;-55
2023/05/03 03:27:23;;;;;;;8.68;3.38;;;3.70;99.90;;;;;;5143880;27;20121;-54
2023/05/03 03:29:49;;;;;;;7.65;2.97;;;3.70;99.90;;;;;;5163877;27;20377;-53
2023/05/03 03:32:14;;;;;;;6.68;3.13;;;3.70;99.90;;;;;;5148211;27;20039;-56
2023/05/03 03:34:40;;;;;;;6.97;3.03;;;3.70;99.90;;;;;;5172035;27;20204;-56
2023/05/03 03:37:06;;;;;;;7.28;2.83;;;3.70;99.90;;;;;;5175692;27;20497;-52
2023/05/03 03:39:31;;;;;;;5.72;2.92;;;3.70;99.90;;;;;;5175898;27;20476;-53
2023/05/03 03:41:57;;;;;;;7.25;3.17;;;3.70;99.90;;;;;;5175296;27;20401;-55
2023/05/03 03:44:23;;;;;;;7.45;2.97;;;3.60;99.90;;;;;;5175703;27;20490;-55
2023/05/03 03:46:48;;;;;;;12.65;3.10;;;3.60;99.90;;;;;;5175861;27;20030;-52
2023/05/03 03:49:14;;;;;;;7.72;3.17;;;3.50;99.90;;;;;;5175362;27;20141;-55
2023/05/03 03:51:40;;;;;;;7.90;3.38;;;3.50;99.90;;;;;;5173640;27;20030;-54
2023/05/03 03:54:05;;;;;;;5.97;3.05;;;3.40;99.90;;;;;;5176155;27;20030;-52
2023/05/03 03:56:31;;;;;;;6.18;3.22;;;3.40;99.90;;;;;;5174103;27;20034;-52
2023/05/03 03:58:57;;;;;;;5.88;3.10;;;3.40;99.90;;;;;;5176264;27;20369;-59
2023/05/03 04:01:22;;;;;;;6.68;2.90;;;3.40;99.90;;;;;;5176394;27;20117;-54
2023/05/03 04:03:48;;;;;;;7.10;2.92;;;3.30;99.90;;;;;;5176003;27;20540;-53
2023/05/03 04:06:14;;;;;;;5.07;2.83;;;3.30;99.90;;;;;;5174600;27;20426;-56
2023/05/03 04:08:40;;;;;;;10.00;3.20;;;3.30;99.90;;;;;;5147063;27;20077;-54
2023/05/03 04:11:12;;;;;;;6.93;3.45;;;3.30;99.90;;;;;;5163016;27;20034;-57
2023/05/03 04:13:38;;;;;;;6.40;2.97;;;3.20;99.90;;;;;;5175360;27;20496;-55
2023/05/03 04:16:05;;;;;;;5.88;2.78;;;3.20;99.90;;;;;;5174438;27;20067;-54
2023/05/03 04:18:31;;;;;;;8.55;3.17;;;3.20;99.90;;;;;;5170300;27;20414;-53
2023/05/03 04:20:56;;;;;;;8.27;2.97;;;3.20;99.90;;;;;;5172385;27;20098;-53
2023/05/03 04:23:22;;;;;;;7.47;3.40;;;3.20;99.90;;;;;;5172278;27;20037;-57
2023/05/03 04:25:48;;;;;;;6.70;3.20;;;3.20;99.90;;;;;;5173506;27;20041;-56
2023/05/03 04:28:14;;;;;;;5.53;3.25;;;3.20;99.90;;;;;;5174612;27;20046;-54
2023/05/03 04:30:46;;;;;;;7.80;3.50;;;3.20;99.90;;;;;;5174810;27;20065;-56
2023/05/03 04:33:12;;;;;;;7.55;3.13;;;3.30;99.90;;;;;;5171552;27;20628;-55
2023/05/03 04:35:39;;;;;;;10.32;3.60;;;3.30;99.90;;;;;;5173454;27;20392;-58
2023/05/03 04:38:04;;;;;;;7.25;3.75;;;3.30;99.90;;;;;;5174601;27;20038;-53
2023/05/03 04:40:30;;;;;;;6.15;3.10;;;3.40;99.90;;;;;;5172382;27;20075;-57
2023/05/03 04:42:56;;;;;;;5.50;3.22;;;3.40;99.90;;;;;;5175895;27;20053;-52
2023/05/03 04:45:22;;;;;;;6.22;3.22;;;3.60;99.90;;;;;;5174998;27;20042;-55
2023/05/03 04:47:49;;;;;;;9.75;3.22;;;3.40;99.90;;;;;;5174034;27;20411;-55
2023/05/03 04:50:15;;;;;;;9.50;3.53;;;3.50;99.90;;;;;;5175030;27;20049;-53
2023/05/03 04:52:41;;;;;;;7.60;3.42;;;3.50;99.90;;;;;;5173841;27;20038;-55
2023/05/03 04:55:07;;;;;;;7.78;3.38;;;3.60;99.90;;;;;;5174200;27;20041;-54
2023/05/03 04:57:33;;;;;;;10.18;3.25;;;3.60;99.90;;;;;;5174546;27;20030;-54
2023/05/03 05:00:00;;;;;;;6.85;3.65;;;3.70;99.90;;;;;;5145853;27;20047;-57
2023/05/03 05:02:26;;;;;;;8.35;3.45;;;3.80;99.90;;;;;;5161016;27;20090;-51
2023/05/03 05:04:52;;;;;;;9.70;3.72;;;3.80;99.90;;;;;;5170160;27;20053;-54
2023/05/03 05:07:18;;;;;;;7.28;4.10;;;3.80;99.90;;;;;;5173300;27;20034;-54
2023/05/03 05:09:44;;;;;;;10.05;3.70;;;3.90;99.90;;;;;;5172755;27;20499;-55
2023/05/03 05:12:10;;;;;;;8.50;3.97;;;4.00;99.90;;;;;;5173631;27;20485;-56
2023/05/03 05:14:36;;;;;;;8.45;4.03;;;4.10;99.90;;;;;;5175057;27;20052;-54
2023/05/03 05:17:01;;;;;;;9.48;3.83;;;4.10;99.90;;;;;;5139465;27;20043;-57
2023/05/03 05:19:27;;;;;;;8.73;3.95;;;4.30;99.90;;;;;;5146076;27;20031;-56
2023/05/03 05:21:53;;;;;;;6.68;3.72;;;4.30;99.90;;;;;;5157836;27;20089;-56
2023/05/03 05:24:18;;;;;;;9.95;4.00;;;4.30;99.90;;;;;;5170428;27;20037;-55
2023/05/03 05:26:44;;;;;;;8.52;3.90;;;4.30;99.90;;;;;;5172887;27;20393;-54
2023/05/03 05:29:10;;;;;;;7.47;4.00;;;4.40;99.90;;;;;;5166389;27;20026;-54
2023/05/03 05:31:36;;;;;;;10.70;3.80;;;4.50;99.90;;;;;;5133124;27;20030;-53
2023/05/03 05:34:02;;;;;;;7.25;3.92;;;4.60;99.90;;;;;;5133944;27;20073;-54
2023/05/03 05:36:29;;;;;;;8.00;3.70;;;4.70;99.90;;;;;;5173002;27;20038;-55
2023/05/03 05:38:55;;;;;;;9.68;3.95;;;4.90;99.90;;;;;;5172175;27;20038;-55
2023/05/03 05:41:21;;;;;;;7.78;4.05;;;5.00;99.90;;;;;;5127608;27;20505;-56
2023/05/03 05:43:47;;;;;;;8.88;3.90;;;5.10;99.90;;;;;;5161516;27;20026;-52
2023/05/03 05:46:13;;;;;;;8.85;4.00;;;5.20;99.90;;;;;;5145076;27;20047;-57
2023/05/03 05:48:40;;;;;;;6.63;3.28;;;5.20;99.90;;;;;;5154988;27;20042;-53
2023/05/03 05:51:06;;;;;;;12.00;4.30;;;5.30;99.90;;;;;;5171371;27;20034;-50
2023/05/03 05:53:31;;;;;;;21.33;4.65;;;5.40;99.90;;;;;;5171401;27;20030;-55
2023/05/03 05:55:57;;;;;;;10.00;4.18;;;5.40;99.90;;;;;;5172685;27;20033;-56
2023/05/03 05:58:23;;;;;;;9.05;4.57;;;5.50;99.90;;;;;;5173270;27;20038;-54
2023/05/03 06:00:49;;;;;;;9.07;4.57;;;5.60;99.90;;;;;;5173991;27;20436;-58
2023/05/03 06:03:15;;;;;;;11.13;4.60;;;5.60;99.90;;;;;;5133769;27;20055;-54
2023/05/03 06:05:41;;;;;;;10.15;4.00;;;5.70;99.90;;;;;;5162551;27;20071;-56
2023/05/03 06:08:07;;;;;;;13.07;4.15;;;5.80;99.90;;;;;;5172225;27;20073;-55
2023/05/03 06:10:33;;;;;;;10.02;3.92;;;5.80;99.90;;;;;;5173257;27;20045;-57
2023/05/03 06:12:59;;;;;;;7.93;3.10;;;5.90;99.90;;;;;;5172101;27;20030;-52
2023/05/03 06:15:25;;;;;;;9.13;3.03;;;6.00;99.90;;;;;;5172712;27;20126;-54
2023/05/03 06:17:51;;;;;;;13.73;3.10;;;6.00;99.90;;;;;;5139115;27;20086;-57
2023/05/03 06:20:17;;;;;;;7.18;3.25;;;6.20;99.90;;;;;;5173512;27;20038;-54
2023/05/03 06:22:43;;;;;;;9.27;2.85;;;5.80;99.90;;;;;;5173444;27;20034;-57
2023/05/03 06:25:09;;;;;;;5.82;2.63;;;6.20;99.90;;;;;;5172245;27;20090;-55
2023/05/03 06:27:37;;;;;;;7.00;2.20;;;6.30;99.90;;;;;;5172533;27;20113;-55
2023/05/03 06:30:03;;;;;;;4.63;1.67;;;6.30;99.90;;;;;;5173013;27;20511;-53
2023/05/03 06:32:28;;;;;;;8.50;2.00;;;6.40;99.90;;;;;;5164175;27;20043;-56
2023/05/03 06:34:54;;;;;;;7.72;1.73;;;6.40;99.90;;;;;;5168752;27;20030;-55
2023/05/03 06:37:22;;;;;;;6.43;1.75;;;6.50;99.90;;;;;;5168962;27;20038;-54
2023/05/03 06:39:49;;;;;;;8.52;1.80;;;6.50;99.90;;;;;;5170189;27;20034;-55
2023/05/03 06:42:15;;;;;;;3.72;1.35;;;6.60;99.90;;;;;;5172357;27;20050;-53
2023/05/03 06:44:41;;;;;;;5.45;1.60;;;6.70;99.90;;;;;;5170128;27;20038;-56
2023/05/03 06:47:07;;;;;;;4.43;1.52;;;6.80;99.90;;;;;;5172488;27;20030;-56
2023/05/03 06:49:33;;;;;;;9.50;1.55;;;7.00;99.90;;;;;;5172368;27;20071;-56
2023/05/03 06:51:58;;;;;;;2.58;1.65;;;7.10;99.90;;;;;;5172836;27;20040;-56
2023/05/03 06:54:24;;;;;;;5.85;2.00;;;7.20;99.90;;;;;;5170284;27;20422;-55
2023/05/03 06:56:50;;;;;;;4.55;1.50;;;7.30;99.90;;;;;;5126163;27;20042;-55
2023/05/03 06:59:16;;;;;;;6.70;1.60;;;7.30;99.90;;;;;;5162079;27;20038;-56
2023/05/03 07:01:41;;;;;;;6.38;1.90;;;7.40;99.90;;;;;;5172472;27;20090;-55
2023/05/03 07:04:07;;;;;;;4.40;1.60;;;7.50;99.90;;;;;;5168382;27;20118;-54
2023/05/03 07:06:33;;;;;;;4.43;1.70;;;7.50;99.90;;;;;;5161458;27;20043;-60
2023/05/03 07:08:58;;;;;;;3.90;1.80;;;7.50;99.90;;;;;;5167655;27;20048;-56
2023/05/03 07:11:24;;;;;;;3.33;1.73;;;7.60;99.90;;;;;;5171337;27;20027;-55
2023/05/03 07:13:51;;;;;;;5.93;1.73;;;7.60;99.90;;;;;;5171741;27;20045;-58
2023/05/03 07:16:20;;;;;;;4.00;1.58;;;7.60;99.90;;;;;;5171367;27;20038;-53
2023/05/03 07:18:47;;;;;;;6.53;1.80;;;7.80;99.90;;;;;;5163684;27;20034;-55
2023/05/03 07:21:13;;;;;;;4.43;1.60;;;7.90;99.90;;;;;;5168916;27;20037;-53
2023/05/03 07:23:39;;;;;;;3.70;1.60;;;7.90;99.90;;;;;;5170003;27;20038;-53
2023/05/03 07:26:05;;;;;;;5.72;1.38;;;8.00;99.90;;;;;;5142608;27;20103;-53
2023/05/03 07:28:31;;;;;;;3.13;1.27;;;8.10;99.90;;;;;;5158246;27;20039;-53
2023/05/03 07:30:57;;;;;;;3.13;1.25;;;8.10;99.90;;;;;;5127057;27;20054;-56
2023/05/03 07:33:23;;;;;;;5.25;1.45;;;8.20;99.90;;;;;;5155405;27;20117;-55
2023/05/03 07:35:49;;;;;;;6.30;1.20;;;8.20;99.90;;;;;;5148003;27;20462;-53
2023/05/03 07:38:15;;;;;;;5.65;1.40;;;8.30;99.90;;;;;;5151436;27;20042;-56
2023/05/03 07:40:41;;;;;;;5.85;1.52;;;8.40;99.90;;;;;;5156438;27;20023;-54
2023/05/03 07:43:11;;;;;;;3.92;1.33;;;8.50;99.90;;;;;;5156347;27;20034;-54
2023/05/03 07:45:37;;;;;;;3.90;1.35;;;8.50;99.90;;;;;;5153747;27;20079;-56
2023/05/03 07:48:04;;;;;;;6.15;1.60;;;8.50;99.90;;;;;;5130298;27;20047;-58
2023/05/03 07:50:30;;;;;;;5.20;1.50;;;8.60;99.90;;;;;;5154423;27;20035;-55
2023/05/03 07:52:56;;;;;;;4.07;1.30;;;8.70;99.90;;;;;;5127671;27;20049;-55
2023/05/03 07:55:22;;;;;;;4.82;1.30;;;8.90;99.90;;;;;;5154702;27;20046;-54
2023/05/03 07:57:48;;;;;;;7.35;1.40;;;9.10;99.90;;;;;;5154464;27;20039;-55
2023/05/03 08:00:16;;;;;;;2.65;1.20;;;9.20;99.90;;;;;;5155071;27;20037;-55
2023/05/03 08:02:42;;;;;;;3.70;1.20;;;9.20;99.90;;;;;;5155074;27;20138;-54
2023/05/03 08:05:09;;;;;;;3.60;1.20;;;9.20;99.90;;;;;;5157388;27;20153;-53
2023/05/03 08:07:34;;;;;;;5.38;1.30;;;9.30;99.90;;;;;;5153831;27;20108;-55
2023/05/03 08:10:01;;;;;;;4.03;1.20;;;9.40;99.90;;;;;;5157105;27;20030;-57
2023/05/03 08:12:27;;;;;;;7.28;1.40;;;9.40;99.90;;;;;;5155224;27;20019;-58
2023/05/03 08:14:55;;;;;;;4.05;1.40;;;9.50;99.90;;;;;;5154261;27;20034;-56
2023/05/03 08:17:22;;;;;;;6.65;1.50;;;9.60;99.90;;;;;;5127637;27;20026;-57
2023/05/03 08:19:48;;;;;;;4.10;1.40;;;9.60;99.90;;;;;;5156554;27;20121;-54
2023/05/03 08:22:15;;;;;;;5.40;1.40;;;9.70;99.90;;;;;;5112761;27;20066;-56
2023/05/03 08:24:41;;;;;;;5.75;1.60;;;9.70;99.90;;;;;;5149534;27;20520;-55
2023/05/03 08:27:08;;;;;;;5.00;1.40;;;9.80;99.90;;;;;;5155453;27;20434;-55
2023/05/03 08:29:36;;;;;;;7.45;2.05;;;9.90;99.90;;;;;;5159192;27;20110;-53
2023/05/03 08:32:03;;;;;;;5.35;1.65;;;9.90;99.90;;;;;;5157076;27;20465;-53
2023/05/03 08:34:29;;;;;;;3.65;1.30;;;10.00;99.90;;;;;;5156700;27;20040;-57
2023/05/03 08:36:56;;;;;;;3.58;1.48;;;10.00;99.90;;;;;;5157868;27;20113;-56
2023/05/03 08:39:25;;;;;;;4.65;1.42;;;10.00;99.90;;;;;;5159370;27;20034;-54
2023/05/03 08:41:52;;;;;;;5.55;1.58;;;10.10;99.90;;;;;;5156256;27;20087;-54
2023/05/03 08:44:22;;;;;;;5.63;1.67;;;10.20;99.90;;;;;;5159241;27;20026;-57
2023/05/03 08:46:51;;;;;;;5.93;1.75;;;10.30;99.90;;;;;;5158777;27;20587;-54
2023/05/03 08:49:17;;;;;;;4.18;1.73;;;10.30;99.90;;;;;;5155112;27;20496;-55
2023/05/03 08:51:48;;;;;;;7.18;1.60;;;10.20;99.90;;;;;;5143539;27;20038;-59
2023/05/03 08:54:19;;;;;;;3.22;1.30;;;10.20;99.90;;;;;;5149775;27;20110;-58
2023/05/03 08:56:46;;;;;;;5.10;1.60;;;10.30;99.90;;;;;;5163776;27;20054;-52
2023/05/03 08:59:12;;;;;;;5.53;1.90;;;10.30;99.90;;;;;;5161475;27;20513;-56
2023/05/03 09:01:39;;;;;;;5.85;1.90;;;10.20;99.90;;;;;;5171264;27;20496;-55
2023/05/03 09:04:06;;;;;;;4.28;1.70;;;10.20;99.90;;;;;;5174517;27;20066;-56
2023/05/03 09:06:33;;;;;;;6.32;1.75;;;10.30;99.90;;;;;;5133881;27;20478;-54
2023/05/03 09:08:59;;;;;;;5.55;1.80;;;10.50;99.90;;;;;;5159740;27;20038;-55
2023/05/03 09:11:28;;;;;;;5.07;1.60;;;10.70;99.90;;;;;;5174063;27;20030;-54
2023/05/03 09:14:07;;;;;;;3.65;1.50;;;10.90;99.90;;;;;;5172763;27;20382;-59
2023/05/03 09:16:32;;;;;;;10.02;1.65;;;10.90;99.90;;;;;;5174714;27;20041;-53
2023/05/03 09:19:05;;;;;;;4.85;1.50;;;11.10;99.90;;;;;;5173083;27;20053;-57
2023/05/03 09:21:31;;;;;;;5.65;1.60;;;11.30;99.90;;;;;;5174085;27;20076;-57
2023/05/03 09:23:58;;;;;;;6.80;2.00;;;11.60;99.90;;;;;;5173083;27;20481;-54
2023/05/03 09:26:31;;;;;;;7.20;2.28;;;11.80;99.90;;;;;;5173282;27;20044;-58
2023/05/03 09:29:02;;;;;;;7.70;2.13;;;12.00;99.90;;;;;;5164246;27;20099;-55
2023/05/03 09:31:29;;;;;;;9.35;2.47;;;12.20;99.90;;;;;;5163533;27;20031;-59
2023/05/03 09:33:56;;;;;;;11.52;3.08;;;12.30;99.90;;;;;;5138696;27;20500;-59
2023/05/03 09:36:22;;;;;;;8.80;2.70;;;12.50;99.90;;;;;;5138729;27;20045;-56
2023/05/03 09:38:48;;;;;;;6.95;2.17;;;12.60;99.90;;;;;;5166671;27;20038;-59
2023/05/03 09:41:15;;;;;;;12.30;2.03;;;12.60;99.90;;;;;;5171849;27;20042;-58
2023/05/03 09:43:52;;;;;;;8.40;2.10;;;12.70;99.90;;;;;;5164710;27;20049;-57
2023/05/03 09:46:18;;;;;;;6.63;1.70;;;12.90;99.90;;;;;;5168550;27;20468;-59
2023/05/03 09:48:44;;;;;;;4.03;1.40;;;12.90;99.90;;;;;;5170983;27;20045;-57
2023/05/03 09:51:11;;;;;;;3.65;1.40;;;13.00;99.90;;;;;;5166046;27;20034;-60
2023/05/03 09:53:38;;;;;;;8.73;1.73;;;13.10;99.90;;;;;;5172095;27;20026;-60
2023/05/03 09:56:13;;;;;;;3.83;1.40;;;13.10;99.90;;;;;;5170640;27;20389;-59
2023/05/03 09:58:40;;;;;;;5.00;1.70;;;13.20;99.90;;;;;;5173101;27;20437;-57
2023/05/03 10:01:07;;;;;;;5.72;1.52;;;13.30;99.90;;;;;;5168970;27;20461;-58
2023/05/03 10:03:42;;;;;;;4.78;1.38;;;13.30;99.90;;;;;;5131586;27;20125;-58
2023/05/03 10:06:27;;;;;;;3.95;1.38;;;13.40;99.90;;;;;;5133733;27;20053;-59
2023/05/03 10:08:59;;;;;;;7.43;1.83;;;13.50;99.90;;;;;;5133642;27;20108;-56
2023/05/03 10:11:26;;;;;;;4.53;1.40;;;13.60;99.90;;;;;;5171489;27;20120;-58
2023/05/03 10:13:53;;;;;;;5.47;1.30;;;13.60;99.90;;;;;;5170782;27;20487;-57
2023/05/03 10:16:26;;;;;;;4.10;1.50;;;13.40;99.90;;;;;;5172010;27;20070;-59
2023/05/03 10:19:12;;;;;;;5.50;1.55;;;13.30;99.90;;;;;;5171023;27;21309;-57
2023/05/03 10:22:05;;;;;;;5.85;1.63;;;13.30;99.90;;;;;;5137114;27;20047;-59
2023/05/03 10:24:32;;;;;;;5.72;1.60;;;13.30;99.90;;;;;;5136086;27;20043;-55
2023/05/03 10:26:58;;;;;;;4.13;1.75;;;13.30;99.90;;;;;;5162986;27;20042;-58
2023/05/03 10:29:51;;;;;;;5.70;1.63;;;13.30;99.90;;;;;;5171722;27;20386;-59
2023/05/03 10:32:31;;;;;;;6.57;1.80;;;13.40;99.90;;;;;;5171161;27;20438;-55
2023/05/03 10:35:09;;;;;;;4.97;1.80;;;13.40;99.90;;;;;;5138608;27;20076;-60
2023/05/03 10:37:35;;;;;;;4.35;1.67;;;13.50;99.90;;;;;;5171005;27;20046;-57
2023/05/03 10:40:12;;;;;;;3.50;1.38;;;13.60;99.90;;;;;;5171969;27;20042;-59
2023/05/03 10:42:41;;;;;;;3.85;1.33;;;13.70;99.90;;;;;;5168287;27;20247;-57
2023/05/03 10:45:08;;;;;;;4.70;1.60;;;13.60;99.90;;;;;;5167818;27;20090;-58
2023/05/03 10:47:34;;;;;;;5.43;1.95;;;13.60;99.90;;;;;;5163967;27;20046;-60
2023/05/03 10:50:15;;;;;;;4.13;1.70;;;13.60;99.90;;;;;;5120547;27;20041;-60
2023/05/03 10:52:41;;;;;;;4.75;1.50;;;13.70;99.90;;;;;;5159178;27;20127;-60
2023/05/03 10:55:10;;;;;;;6.20;2.03;;;13.70;99.90;;;;;;5171558;27;20130;-59
2023/05/03 10:57:38;;;;;;;6.15;1.80;;;13.70;99.90;;;;;;5147513;27;20382;-58
2023/05/03 11:00:12;;;;;;;4.53;1.85;;;13.80;99.90;;;;;;5155518;27;20489;-59
2023/05/03 11:03:00;;;;;;;6.03;1.83;;;13.90;99.90;;;;;;5147447;27;20050;-59
2023/05/03 11:05:27;;;;;;;6.55;1.70;;;14.10;99.90;;;;;;5149987;27;20393;-60
2023/05/03 11:08:13;;;;;;;5.78;1.60;;;14.20;99.90;;;;;;5153075;27;20532;-58
2023/05/03 11:10:40;;;;;;;5.05;1.70;;;14.30;99.90;;;;;;5140090;27;20027;-61
2023/05/03 11:13:06;;;;;;;5.75;1.65;;;14.30;99.90;;;;;;5142742;27;20047;-58
2023/05/03 11:15:32;;;;;;;3.28;1.67;;;14.30;99.90;;;;;;5141096;27;20366;-59
2023/05/03 11:17:58;;;;;;;5.40;1.98;;;14.50;99.90;;;;;;5142407;27;20031;-59
2023/05/03 11:20:24;;;;;;;4.93;1.70;;;14.60;99.90;;;;;;5118732;27;20544;-61
2023/05/03 11:22:51;;;;;;;4.80;1.50;;;14.50;99.90;;;;;;5141027;27;20468;-60
2023/05/03 11:25:17;;;;;;;4.88;1.63;;;14.70;99.90;;;;;;5139776;27;20477;-59
2023/05/03 11:27:45;;;;;;;4.75;1.63;;;14.80;99.90;;;;;;5140814;27;20039;-59
2023/05/03 11:30:12;;;;;;;4.45;1.30;;;15.00;99.90;;;;;;5119140;27;20091;-58
2023/05/03 11:32:38;;;;;;;5.15;1.58;;;15.20;99.90;;;;;;5141412;27;20042;-59
2023/05/03 11:35:06;;;;;;;4.60;1.60;;;15.40;99.90;;;;;;5146636;27;20393;-60
2023/05/03 11:37:32;;;;;;;3.60;1.33;;;15.60;99.90;;;;;;5151601;27;20426;-59
2023/05/03 11:39:59;;;;;;;3.85;1.40;;;15.70;99.90;;;;;;5148258;27;20917;-60
2023/05/03 11:42:25;;;;;;;3.63;1.40;;;15.80;99.90;;;;;;5149218;27;20026;-60
2023/05/03 11:44:57;;;;;;;4.20;1.60;;;15.90;99.80;;;;;;5150812;27;20474;-60
2023/05/03 11:47:24;;;;;;;4.47;1.50;;;16.00;99.40;;;;;;5152962;27;20035;-57
2023/05/03 11:49:55;;;;;;;5.10;1.55;;;16.10;99.50;;;;;;5151378;27;20034;-56
2023/05/03 11:52:25;;;;;;;5.55;1.77;;;16.10;98.70;;;;;;5153590;27;20035;-60
2023/05/03 11:54:50;;;;;;;4.63;1.73;;;16.00;99.00;;;;;;5151022;27;20057;-59
2023/05/03 11:57:17;;;;;;;4.07;1.60;;;16.10;99.40;;;;;;5153207;27;20070;-59
2023/05/03 11:59:43;;;;;;;4.82;1.70;;;16.20;99.30;;;;;;5151678;27;20066;-59
2023/05/03 12:02:12;;;;;;;3.97;1.55;;;16.30;99.90;;;;;;5154942;27;20033;-59
2023/05/03 12:04:42;;;;;;;5.85;1.75;;;16.50;99.60;;;;;;5152898;27;20128;-59
2023/05/03 12:07:12;;;;;;;4.53;1.50;;;16.60;99.30;;;;;;5151208;27;20383;-57
2023/05/03 12:09:38;;;;;;;3.97;1.63;;;16.80;99.10;;;;;;5154816;27;20034;-59
2023/05/03 12:12:04;;;;;;;4.45;1.70;;;16.90;98.10;;;;;;5153027;27;20125;-57
2023/05/03 12:14:59;;;;;;;4.38;1.60;;;16.80;98.10;;;;;;5155456;27;20487;-60
2023/05/03 12:17:38;;;;;;;7.10;2.20;;;17.00;97.70;;;;;;5154190;27;20047;-60
2023/05/03 12:20:21;;;;;;;3.97;1.70;;;17.10;97.10;;;;;;5156241;27;20041;-60
2023/05/03 12:22:51;;;;;;;6.20;1.70;;;17.10;97.20;;;;;;5152003;27;20035;-59
2023/05/03 12:25:16;;;;;;;4.50;1.73;;;17.30;97.70;;;;;;5151100;27;20788;-59
2023/05/03 12:27:42;;;;;;;4.53;1.83;;;17.30;97.60;;;;;;5156120;27;20034;-59
2023/05/03 12:30:09;;;;;;;7.65;2.17;;;17.50;97.60;;;;;;5148215;27;20034;-59
2023/05/03 12:32:37;;;;;;;5.72;1.90;;;17.60;97.50;;;;;;5128501;27;20542;-61
2023/05/03 12:35:04;;;;;;;3.97;1.50;;;17.70;96.90;;;;;;5173026;27;20477;-59
2023/05/03 12:37:30;;;;;;;4.82;1.88;;;17.80;96.70;;;;;;5172634;27;20499;-54
2023/05/03 12:39:56;;;;;;;5.72;1.70;;;17.90;96.60;;;;;;5173416;27;20042;-58
2023/05/03 12:42:22;;;;;;;4.63;1.77;;;17.90;96.40;;;;;;5154999;27;20068;-61
2023/05/03 12:44:47;;;;;;;4.50;1.92;;;17.90;96.20;;;;;;5174081;27;20078;-56
2023/05/03 12:47:14;;;;;;;4.38;1.83;;;17.90;96.20;;;;;;5173428;27;20031;-58
2023/05/03 12:49:40;;;;;;;6.35;1.80;;;17.90;95.60;;;;;;5174708;27;20042;-56
2023/05/03 12:52:06;;;;;;;4.55;2.17;;;17.90;94.90;;;;;;5174223;27;20488;-60
2023/05/03 12:54:33;;;;;;;3.95;1.45;;;17.90;95.10;;;;;;5173628;27;20034;-57